createdAt,value
2023-02-13T05:06:37.378Z,102710.25
2023-02-13T06:08:27.136Z,102749.41
2023-02-13T06:14:29.403Z,102756.97
2023-02-13T06:20:31.602Z,102760.19
2023-02-13T06:26:34.987Z,102763.19
2023-02-13T06:32:38.716Z,102771.19
2023-02-13T06:38:41.740Z,102772.16
2023-02-13T06:44:43.803Z,102760.72
2023-02-13T06:50:47.208Z,102759.91
2023-02-13T06:56:49.335Z,102721.84
2023-02-13T07:02:51.477Z,102749.41
2023-02-13T07:08:56.330Z,102742.09
2023-02-13T07:14:59.661Z,102751.50
2023-02-13T07:21:01.782Z,102755.34
2023-02-13T07:27:05.671Z,102754.19
2023-02-13T07:33:10.025Z,102748.59
2023-02-13T07:39:15.686Z,102730.63
2023-02-13T07:45:18.566Z,102728.38
2023-02-13T07:51:20.988Z,102726.28
2023-02-13T07:57:24.071Z,102721.91
2023-02-13T08:03:26.482Z,102722.44
2023-02-13T08:09:47.087Z,102711.22
2023-02-13T08:15:49.404Z,102713.44
2023-02-13T08:21:52.099Z,102709.34
2023-02-13T08:27:54.235Z,102698.00
2023-02-13T08:33:57.604Z,102695.44
2023-02-13T08:39:59.784Z,102686.81
2023-02-13T08:46:01.977Z,102670.38
2023-02-13T08:52:04.786Z,102661.88
2023-02-13T08:58:06.849Z,102658.91
2023-02-13T09:04:09.098Z,102637.38
2023-02-13T09:10:14.157Z,102644.97
2023-02-13T09:16:16.689Z,102635.72
2023-02-13T09:22:21.294Z,102629.69
2023-02-13T09:28:23.788Z,102631.91
2023-02-13T09:34:26.898Z,102619.53
2023-02-13T09:40:39.722Z,102604.28
2023-02-13T09:46:44.346Z,102587.72
2023-02-13T09:52:53.823Z,102588.56
2023-02-13T09:59:06.637Z,102575.75
2023-02-13T10:05:37.450Z,102559.03
2023-02-13T10:12:22.740Z,102550.50
2023-02-13T10:18:34.505Z,102531.69
2023-02-13T10:24:42.660Z,102530.03
2023-02-13T10:30:56.944Z,102507.91
2023-02-13T10:37:00.029Z,102497.81
2023-02-13T10:43:09.190Z,102492.81
2023-02-13T10:49:14.139Z,102489.97
2023-02-13T10:55:29.067Z,102477.81
2023-02-13T11:01:46.650Z,102466.25
2023-02-13T11:07:49.439Z,102452.50
2023-02-13T11:14:23.253Z,102453.06
2023-02-13T11:20:31.216Z,102445.75
2023-02-13T11:26:36.140Z,102439.47
2023-02-13T11:32:38.576Z,102429.94
2023-02-13T11:38:41.777Z,102425.19
2023-02-13T11:44:51.023Z,102413.59
2023-02-13T11:50:56.801Z,102409.09
2023-02-13T11:57:26.495Z,102400.19
2023-02-13T12:03:32.587Z,102389.53
2023-02-13T12:09:39.855Z,102383.59
2023-02-13T12:15:44.485Z,102371.97
2023-02-13T12:21:54.789Z,102369.19
2023-02-13T12:28:16.924Z,102364.84
2023-02-13T12:34:25.012Z,102369.91
2023-02-13T12:40:58.551Z,102358.47
2023-02-13T12:47:42.935Z,102365.06
2023-02-13T12:53:48.021Z,102355.84
2023-02-13T13:00:18.732Z,102356.94
2023-02-13T13:06:58.033Z,102342.75
2023-02-13T13:13:12.835Z,102339.34
2023-02-13T13:19:29.928Z,102323.09
2023-02-13T13:25:38.322Z,102316.72
2023-02-13T13:31:40.948Z,102309.06
2023-02-13T13:37:46.571Z,102313.28
2023-02-13T13:44:04.588Z,102314.06
2023-02-13T13:50:19.483Z,102310.88
2023-02-13T13:56:21.512Z,102307.00
2023-02-13T14:02:23.855Z,102306.00
2023-02-13T14:08:47.148Z,102302.66
2023-02-13T14:14:49.382Z,102307.75
2023-02-13T14:20:59.086Z,102298.28
2023-02-13T14:27:06.313Z,102290.81
2023-02-13T14:33:27.344Z,102292.75
2023-02-13T14:39:42.175Z,102283.03
2023-02-13T14:46:04.777Z,102287.63
2023-02-13T14:52:13.899Z,102274.59
2023-02-13T14:58:37.192Z,102270.44
2023-02-13T15:04:47.241Z,102279.28
2023-02-13T15:10:52.354Z,102267.81
2023-02-13T15:16:59.655Z,102270.63
2023-02-13T15:23:02.616Z,102271.41
2023-02-13T15:29:25.831Z,102272.66
2023-02-13T15:35:37.346Z,102280.38
2023-02-13T15:41:47.534Z,102288.69
2023-02-13T15:47:50.537Z,102284.78
2023-02-13T15:54:04.045Z,102288.53
2023-02-13T16:00:07.864Z,102284.25
2023-02-13T16:06:17.079Z,102287.69
2023-02-13T16:12:28.979Z,102285.59
2023-02-13T16:18:32.653Z,102286.22
2023-02-13T16:24:36.515Z,102283.81
2023-02-13T16:30:45.219Z,102282.28
2023-02-13T16:36:47.412Z,102268.06
2023-02-13T16:42:49.413Z,102265.75
2023-02-13T16:48:58.868Z,102270.25
2023-02-13T16:55:06.461Z,102271.78
2023-02-13T17:01:15.815Z,102257.22
2023-02-13T17:07:22.081Z,102261.91
2023-02-13T17:13:25.393Z,102255.31
2023-02-13T17:19:31.181Z,102254.72
2023-02-13T17:25:39.789Z,102246.41
2023-02-13T17:31:44.286Z,102238.56
2023-02-13T17:37:46.456Z,102234.47
2023-02-13T17:43:48.653Z,102236.78
2023-02-13T17:49:59.141Z,102237.16
2023-02-13T17:56:07.008Z,102242.25
2023-02-13T18:02:21.692Z,102230.69
2023-02-13T18:08:24.778Z,102221.16
2023-02-13T18:14:31.136Z,102222.47
2023-02-13T18:20:34.796Z,102223.53
2023-02-13T18:26:37.260Z,102213.50
2023-02-13T18:32:39.412Z,102227.06
2023-02-13T18:38:42.952Z,102227.06
2023-02-13T18:44:44.995Z,102216.41
2023-02-13T18:50:48.257Z,102216.22
2023-02-13T18:56:50.382Z,102208.44
2023-02-13T19:02:53.326Z,102196.66
2023-02-13T19:08:56.378Z,102199.84
2023-02-13T19:14:58.414Z,102199.13
2023-02-13T19:21:02.350Z,102196.88
2023-02-13T19:27:05.957Z,102177.34
2023-02-13T19:33:08.176Z,102183.28
2023-02-13T19:39:12.589Z,102177.81
2023-02-13T19:45:14.836Z,102171.44
2023-02-13T19:51:19.886Z,102169.03
2023-02-13T19:57:22.119Z,102163.41
2023-02-13T20:03:24.205Z,102151.78
2023-02-13T20:09:27.445Z,102133.06
2023-02-13T20:15:32.057Z,102129.66
2023-02-13T20:21:35.481Z,102122.41
2023-02-13T20:27:42.412Z,102098.31
2023-02-13T20:33:45.906Z,102095.94
2023-02-13T20:39:48.183Z,102089.13
2023-02-13T20:45:51.299Z,102095.97
2023-02-13T20:51:53.768Z,102081.88
2023-02-13T20:57:56.009Z,102077.22
2023-02-13T21:04:00.070Z,102075.97
2023-02-13T21:10:02.189Z,102077.13
2023-02-13T21:16:13.945Z,102089.03
2023-02-13T21:22:16.088Z,102089.47
2023-02-13T21:28:21.234Z,102084.59
2023-02-13T21:34:23.984Z,102091.50
2023-02-13T21:40:26.161Z,102094.34
2023-02-13T21:46:30.367Z,102083.88
2023-02-13T21:52:32.428Z,102099.38
2023-02-13T21:58:36.175Z,102104.38
2023-02-13T22:04:38.312Z,102111.19
2023-02-13T22:10:40.524Z,102102.16
2023-02-13T22:16:43.996Z,102094.16
2023-02-13T22:22:46.266Z,102093.56
2023-02-13T22:28:48.588Z,102098.78
2023-02-13T22:34:52.085Z,102101.34
2023-02-13T22:40:54.200Z,102104.28
2023-02-13T22:46:56.513Z,102099.09
2023-02-13T22:52:59.751Z,102092.88
2023-02-13T22:59:01.974Z,102097.06
2023-02-13T23:05:04.096Z,102088.84
2023-02-13T23:11:27.436Z,102085.22
2023-02-13T23:17:48.803Z,102091.41
2023-02-13T23:23:51.464Z,102095.22
2023-02-13T23:29:54.105Z,102091.75
2023-02-13T23:35:56.838Z,102088.72
2023-02-13T23:41:59.087Z,102103.44
2023-02-13T23:48:01.261Z,102119.03
2023-02-13T23:54:04.880Z,102112.09
